Time;durP1;ratioP1;P1;durP2;ratioP2;P2;SDS_P1;SDS_P2;PMS_P1;PMS_P2;Temp;Humidity;BMP_temperature;BMP_pressure;BME280_temperature;BME280_humidity;BME280_pressure;Samples;Min_cycle;Max_cycle;Signal;HPM_P1;HPM_P2
2022/07/19 00:01:13;;;;;;;6.70;1.80;;;;;;;;;;5034071;28;20667;-70
2022/07/19 00:03:38;;;;;;;5.17;1.50;;;;;;;;;;5032658;28;20792;-71
2022/07/19 00:06:03;;;;;;;3.77;1.60;;;;;;;;;;5034008;28;20629;-71
2022/07/19 00:08:29;;;;;;;6.70;1.65;;;;;;;;;;5033842;28;20612;-71
2022/07/19 00:10:54;;;;;;;3.90;1.70;;;;;;;;;;5034088;28;20490;-70
2022/07/19 00:13:20;;;;;;;4.82;1.60;;;;;;;;;;5033880;28;20312;-70
2022/07/19 00:15:45;;;;;;;2.85;1.65;;;;;;;;;;5033939;28;20478;-71
2022/07/19 00:18:10;;;;;;;3.03;1.77;;;;;;;;;;5034266;28;20026;-71
2022/07/19 00:20:35;;;;;;;5.53;1.80;;;;;;;;;;5033544;28;20274;-71
2022/07/19 00:23:01;;;;;;;5.47;2.00;;;;;;;;;;5033598;28;20132;-71
2022/07/19 00:25:26;;;;;;;6.07;1.60;;;;;;;;;;5033525;28;20031;-72
2022/07/19 00:27:51;;;;;;;3.90;1.80;;;;;;;;;;5033834;28;20337;-72
2022/07/19 00:30:16;;;;;;;4.87;1.60;;;;;;;;;;5033716;28;20021;-71
2022/07/19 00:32:42;;;;;;;3.88;1.70;;;;;;;;;;5033685;28;20325;-71
2022/07/19 00:35:07;;;;;;;5.20;1.73;;;;;;;;;;5033541;28;20040;-71
2022/07/19 00:37:33;;;;;;;4.05;1.75;;;;;;;;;;5033331;28;20029;-72
2022/07/19 00:39:58;;;;;;;5.82;1.50;;;;;;;;;;5033450;28;20021;-71
2022/07/19 00:42:24;;;;;;;2.95;1.83;;;;;;;;;;5033261;28;20021;-71
2022/07/19 00:44:49;;;;;;;3.63;1.77;;;;;;;;;;5033495;28;20025;-71
2022/07/19 00:47:15;;;;;;;3.47;1.80;;;;;;;;;;5033101;28;20273;-72
2022/07/19 00:49:40;;;;;;;3.05;1.63;;;;;;;;;;5032817;28;20060;-71
2022/07/19 00:52:05;;;;;;;5.75;1.90;;;;;;;;;;5033251;28;20032;-72
2022/07/19 00:54:34;;;;;;;3.40;1.65;;;;;;;;;;5033071;28;20041;-72
2022/07/19 00:57:00;;;;;;;2.78;1.63;;;;;;;;;;5033079;28;20071;-71
2022/07/19 00:59:26;;;;;;;3.22;1.70;;;;;;;;;;5032769;28;20033;-71
2022/07/19 01:01:52;;;;;;;8.18;1.85;;;;;;;;;;5032967;28;20046;-70
2022/07/19 01:04:18;;;;;;;3.03;1.77;;;;;;;;;;5033061;28;20029;-71
2022/07/19 01:06:43;;;;;;;2.47;1.58;;;;;;;;;;5032875;28;20479;-71
2022/07/19 01:09:09;;;;;;;5.53;1.70;;;;;;;;;;5032672;28;20075;-71
2022/07/19 01:11:34;;;;;;;2.63;1.55;;;;;;;;;;5014966;28;20553;-71
2022/07/19 01:13:59;;;;;;;5.45;1.77;;;;;;;;;;5032878;28;20032;-71
2022/07/19 01:16:25;;;;;;;3.50;1.70;;;;;;;;;;5032863;28;20533;-71
2022/07/19 01:18:50;;;;;;;2.93;1.67;;;;;;;;;;5033191;28;20748;-71
2022/07/19 01:21:24;;;;;;;2.63;1.80;;;;;;;;;;5031364;28;20755;-70
2022/07/19 01:23:50;;;;;;;6.50;1.60;;;;;;;;;;5033088;28;20493;-70
2022/07/19 01:26:16;;;;;;;4.28;1.80;;;;;;;;;;5033000;28;20037;-71
2022/07/19 01:28:42;;;;;;;4.20;1.60;;;;;;;;;;5015065;28;20025;-71
2022/07/19 01:31:07;;;;;;;3.00;1.60;;;;;;;;;;5024577;28;20045;-71
2022/07/19 01:33:42;;;;;;;4.13;1.80;;;;;;;;;;5032791;28;20017;-71
2022/07/19 01:36:08;;;;;;;5.97;1.67;;;;;;;;;;5032902;28;20033;-71
2022/07/19 01:38:33;;;;;;;5.60;1.70;;;;;;;;;;5032602;28;20030;-71
2022/07/19 01:40:58;;;;;;;6.50;1.90;;;;;;;;;;5032348;28;20113;-71
2022/07/19 01:43:23;;;;;;;2.92;1.77;;;;;;;;;;5014807;28;20294;-70
2022/07/19 01:45:49;;;;;;;5.23;1.80;;;;;;;;;;5032492;28;20033;-71
2022/07/19 01:48:14;;;;;;;5.03;2.08;;;;;;;;;;5032535;28;20286;-70
2022/07/19 01:50:40;;;;;;;3.45;2.08;;;;;;;;;;5032206;28;20026;-71
2022/07/19 01:53:05;;;;;;;3.50;1.60;;;;;;;;;;5032475;28;20017;-73
2022/07/19 01:55:30;;;;;;;3.97;1.57;;;;;;;;;;5025869;28;20279;-71
2022/07/19 01:57:55;;;;;;;4.03;1.90;;;;;;;;;;5031179;28;20255;-71
2022/07/19 02:00:20;;;;;;;6.87;1.80;;;;;;;;;;5032452;28;20775;-71
2022/07/19 02:02:46;;;;;;;3.33;1.60;;;;;;;;;;5035799;28;20754;-71
2022/07/19 02:05:11;;;;;;;5.38;1.70;;;;;;;;;;5036299;28;20376;-71
2022/07/19 02:07:36;;;;;;;2.97;1.77;;;;;;;;;;5036200;28;20152;-71
2022/07/19 02:10:06;;;;;;;4.57;2.38;;;;;;;;;;5036123;28;20390;-71
2022/07/19 02:12:32;;;;;;;5.38;1.90;;;;;;;;;;5018440;28;20084;-71
2022/07/19 02:14:57;;;;;;;5.88;1.80;;;;;;;;;;5036102;28;20029;-71
2022/07/19 02:17:22;;;;;;;4.20;1.60;;;;;;;;;;5035998;28;20497;-71
2022/07/19 02:19:47;;;;;;;3.73;2.07;;;;;;;;;;5018758;28;20030;-71
2022/07/19 02:22:13;;;;;;;2.70;1.80;;;;;;;;;;5035956;28;20262;-72
2022/07/19 02:24:42;;;;;;;3.05;1.60;;;;;;;;;;5036250;28;20032;-70
2022/07/19 02:27:07;;;;;;;2.92;1.70;;;;;;;;;;5018083;28;20052;-72
2022/07/19 02:29:32;;;;;;;4.83;1.90;;;;;;;;;;5035654;28;20064;-71
2022/07/19 02:31:57;;;;;;;3.67;2.03;;;;;;;;;;5036289;28;20274;-71
2022/07/19 02:34:23;;;;;;;6.83;2.00;;;;;;;;;;5036194;28;20277;-72
2022/07/19 02:36:48;;;;;;;5.13;1.93;;;;;;;;;;5036074;28;20266;-72
2022/07/19 02:39:13;;;;;;;4.07;1.83;;;;;;;;;;5035617;28;20286;-70
2022/07/19 02:41:38;;;;;;;3.77;1.80;;;;;;;;;;5035801;28;20263;-71
2022/07/19 02:44:03;;;;;;;4.93;1.80;;;;;;;;;;5035643;28;20320;-71
2022/07/19 02:46:29;;;;;;;2.78;1.75;;;;;;;;;;5035468;28;20258;-71
2022/07/19 02:48:54;;;;;;;3.70;1.83;;;;;;;;;;5035315;28;20049;-71
2022/07/19 02:51:19;;;;;;;3.77;2.03;;;;;;;;;;5035566;28;20478;-72
2022/07/19 02:53:44;;;;;;;7.70;1.70;;;;;;;;;;5035619;28;20783;-71
2022/07/19 02:56:10;;;;;;;3.13;1.90;;;;;;;;;;5035292;28;20104;-72
2022/07/19 02:58:35;;;;;;;5.50;1.87;;;;;;;;;;5035428;28;20305;-71
2022/07/19 03:01:00;;;;;;;2.03;1.60;;;;;;;;;;5035210;28;20271;-71
2022/07/19 03:03:44;;;;;;;3.08;1.83;;;;;;;;;;5035567;28;20255;-72
2022/07/19 03:06:10;;;;;;;4.78;1.90;;;;;;;;;;5035633;28;20028;-72
2022/07/19 03:08:35;;;;;;;2.88;1.80;;;;;;;;;;5035272;28;20506;-71
2022/07/19 03:11:01;;;;;;;3.33;1.83;;;;;;;;;;5035047;28;20021;-70
2022/07/19 03:13:26;;;;;;;3.20;1.63;;;;;;;;;;5034247;28;20033;-71
2022/07/19 03:15:51;;;;;;;2.20;1.73;;;;;;;;;;5035271;28;20482;-71
2022/07/19 03:18:16;;;;;;;5.23;2.10;;;;;;;;;;5035255;28;20716;-72
2022/07/19 03:20:41;;;;;;;4.30;1.90;;;;;;;;;;5034889;28;20700;-71
2022/07/19 03:23:07;;;;;;;5.80;1.73;;;;;;;;;;5034722;28;20719;-71
2022/07/19 03:25:32;;;;;;;3.80;1.77;;;;;;;;;;5034784;28;20270;-70
2022/07/19 03:27:58;;;;;;;2.53;1.73;;;;;;;;;;5034690;28;20029;-70
2022/07/19 03:30:23;;;;;;;5.60;1.80;;;;;;;;;;5034584;28;20294;-71
2022/07/19 03:32:48;;;;;;;5.60;2.00;;;;;;;;;;5034986;28;20325;-71
2022/07/19 03:35:13;;;;;;;4.35;2.15;;;;;;;;;;5034562;28;20282;-70
2022/07/19 03:37:39;;;;;;;3.97;1.90;;;;;;;;;;5034562;28;20394;-71
2022/07/19 03:40:05;;;;;;;3.85;1.73;;;;;;;;;;5034563;28;20589;-71
2022/07/19 03:42:30;;;;;;;4.05;1.85;;;;;;;;;;5034465;28;20573;-72
2022/07/19 03:44:55;;;;;;;5.97;2.08;;;;;;;;;;5034372;28;20112;-71
2022/07/19 03:47:21;;;;;;;5.53;1.87;;;;;;;;;;5034787;28;20429;-70
2022/07/19 03:49:46;;;;;;;3.30;1.92;;;;;;;;;;5034255;28;20663;-70
2022/07/19 03:52:12;;;;;;;6.20;1.97;;;;;;;;;;5034184;28;20017;-70
2022/07/19 03:54:37;;;;;;;9.55;2.05;;;;;;;;;;5034177;28;20329;-70
2022/07/19 03:57:02;;;;;;;6.38;1.90;;;;;;;;;;5034093;28;20132;-71
2022/07/19 03:59:28;;;;;;;4.00;1.88;;;;;;;;;;5034060;28;20079;-70
2022/07/19 04:01:53;;;;;;;4.20;1.77;;;;;;;;;;5034085;28;20036;-71
2022/07/19 04:04:18;;;;;;;3.23;1.70;;;;;;;;;;5033996;28;20017;-70
2022/07/19 04:06:44;;;;;;;3.80;1.93;;;;;;;;;;5033931;28;20400;-71
2022/07/19 04:09:09;;;;;;;5.68;1.60;;;;;;;;;;5015889;28;20270;-71
2022/07/19 04:11:34;;;;;;;3.38;1.80;;;;;;;;;;5033885;28;20123;-72
2022/07/19 04:13:59;;;;;;;5.77;2.20;;;;;;;;;;5033839;28;20112;-71
2022/07/19 04:16:25;;;;;;;2.63;1.80;;;;;;;;;;5033717;28;20262;-71
2022/07/19 04:18:50;;;;;;;3.15;1.70;;;;;;;;;;5033876;28;20262;-71
2022/07/19 04:21:15;;;;;;;4.83;1.73;;;;;;;;;;5033460;28;20113;-71
2022/07/19 04:23:40;;;;;;;7.32;2.05;;;;;;;;;;5033854;28;20290;-71
2022/07/19 04:26:06;;;;;;;11.77;2.55;;;;;;;;;;5032596;28;20051;-71
2022/07/19 04:28:31;;;;;;;6.85;2.20;;;;;;;;;;5033853;28;20021;-71
2022/07/19 04:30:56;;;;;;;3.08;1.52;;;;;;;;;;5033400;28;20040;-72
2022/07/19 04:33:22;;;;;;;4.95;2.10;;;;;;;;;;5015760;28;20025;-72
2022/07/19 04:35:47;;;;;;;2.78;1.67;;;;;;;;;;5033726;28;20474;-72
2022/07/19 04:38:12;;;;;;;7.22;2.13;;;;;;;;;;5033412;28;20108;-71
2022/07/19 04:40:38;;;;;;;5.07;1.92;;;;;;;;;;5033062;28;20530;-71
2022/07/19 04:43:06;;;;;;;3.10;1.85;;;;;;;;;;5033249;28;20025;-70
2022/07/19 04:45:31;;;;;;;3.50;2.05;;;;;;;;;;5033132;28;20371;-70
2022/07/19 04:47:57;;;;;;;4.22;1.98;;;;;;;;;;5033096;28;20086;-71
2022/07/19 04:50:22;;;;;;;4.63;1.92;;;;;;;;;;5032993;28;20104;-71
2022/07/19 04:52:47;;;;;;;4.38;1.85;;;;;;;;;;5033254;28;20044;-71
2022/07/19 04:55:13;;;;;;;5.23;2.27;;;;;;;;;;5029067;28;20034;-71
2022/07/19 04:57:38;;;;;;;7.20;2.13;;;;;;;;;;5029052;28;20329;-71
2022/07/19 05:00:06;;;;;;;7.53;1.90;;;;;;;;;;5032836;28;20029;-71
2022/07/19 05:02:31;;;;;;;7.20;2.30;;;;;;;;;;5033015;28;20033;-71
2022/07/19 05:04:56;;;;;;;3.30;1.90;;;;;;;;;;5031734;28;20026;-71
2022/07/19 05:07:21;;;;;;;5.03;1.90;;;;;;;;;;5032816;28;20300;-71
2022/07/19 05:09:47;;;;;;;3.75;2.00;;;;;;;;;;5032708;28;20521;-70
2022/07/19 05:12:12;;;;;;;3.00;1.80;;;;;;;;;;5032810;28;20037;-71
2022/07/19 05:14:37;;;;;;;3.93;1.70;;;;;;;;;;5032739;28;20293;-70
2022/07/19 05:17:02;;;;;;;6.83;2.00;;;;;;;;;;5033077;28;20274;-70
2022/07/19 05:19:28;;;;;;;8.52;2.00;;;;;;;;;;5032578;28;20278;-70
2022/07/19 05:21:53;;;;;;;6.15;1.70;;;;;;;;;;5032695;28;20031;-71
2022/07/19 05:24:18;;;;;;;6.23;2.20;;;;;;;;;;5033180;28;20047;-70
2022/07/19 05:26:43;;;;;;;3.47;1.90;;;;;;;;;;5032662;28;20349;-70
2022/07/19 05:29:09;;;;;;;4.70;2.30;;;;;;;;;;5032559;28;20021;-71
2022/07/19 05:31:35;;;;;;;3.28;1.63;;;;;;;;;;5032771;28;20048;-70
2022/07/19 05:34:00;;;;;;;12.80;2.20;;;;;;;;;;5032496;28;20029;-71
2022/07/19 05:36:25;;;;;;;14.07;2.20;;;;;;;;;;5033868;28;20017;-71
2022/07/19 05:38:52;;;;;;;6.37;1.70;;;;;;;;;;5036577;28;20032;-70
2022/07/19 05:41:17;;;;;;;3.83;1.80;;;;;;;;;;5036709;28;20274;-71
2022/07/19 05:43:43;;;;;;;7.30;2.00;;;;;;;;;;5036551;28;20479;-71
2022/07/19 05:46:09;;;;;;;4.22;1.70;;;;;;;;;;5036514;28;20079;-71
2022/07/19 05:48:34;;;;;;;5.70;1.77;;;;;;;;;;5036435;28;20033;-71
2022/07/19 05:50:59;;;;;;;4.45;1.73;;;;;;;;;;5036267;28;20017;-71
2022/07/19 05:53:25;;;;;;;3.20;2.20;;;;;;;;;;5036311;28;20039;-70
2022/07/19 05:55:50;;;;;;;6.28;1.95;;;;;;;;;;5036360;28;20109;-71
2022/07/19 05:58:17;;;;;;;5.10;1.80;;;;;;;;;;5036297;28;20056;-71
2022/07/19 06:01:17;;;;;;;8.13;2.00;;;;;;;;;;5036434;28;20418;-70
2022/07/19 06:03:28;;;;;;;3.22;1.83;;;;;;;;;;5036022;28;20025;-70
2022/07/19 06:05:53;;;;;;;4.70;1.80;;;;;;;;;;5036432;28;20032;-70
2022/07/19 06:08:19;;;;;;;3.85;1.90;;;;;;;;;;5036068;28;20074;-70
2022/07/19 06:10:44;;;;;;;5.27;1.67;;;;;;;;;;5034586;28;20043;-71
2022/07/19 06:13:09;;;;;;;2.77;1.73;;;;;;;;;;5036269;28;20251;-70
2022/07/19 06:15:34;;;;;;;4.00;1.60;;;;;;;;;;5036066;28;20262;-70
2022/07/19 06:17:59;;;;;;;5.13;1.80;;;;;;;;;;5035876;28;20259;-70
2022/07/19 06:20:25;;;;;;;2.83;1.60;;;;;;;;;;5035768;28;20278;-71
2022/07/19 06:22:50;;;;;;;5.60;1.57;;;;;;;;;;5035748;28;20326;-70
2022/07/19 06:25:15;;;;;;;4.67;2.07;;;;;;;;;;5035853;28;20344;-71
2022/07/19 06:27:40;;;;;;;4.27;1.70;;;;;;;;;;5034369;28;20267;-71
2022/07/19 06:30:06;;;;;;;4.10;1.87;;;;;;;;;;5035742;28;20304;-71
2022/07/19 06:32:31;;;;;;;6.13;1.80;;;;;;;;;;5035592;28;20262;-71
2022/07/19 06:34:56;;;;;;;3.20;1.60;;;;;;;;;;5036209;28;20029;-71
2022/07/19 06:37:22;;;;;;;4.10;1.67;;;;;;;;;;5035634;28;20667;-70
2022/07/19 06:39:47;;;;;;;3.83;1.60;;;;;;;;;;5035746;28;20283;-70
2022/07/19 06:42:12;;;;;;;15.95;1.80;;;;;;;;;;5035463;28;20265;-70
2022/07/19 06:44:38;;;;;;;4.95;1.67;;;;;;;;;;5035561;28;20032;-69
2022/07/19 06:47:03;;;;;;;3.05;1.50;;;;;;;;;;5035876;28;20106;-70
2022/07/19 06:49:28;;;;;;;3.17;1.60;;;;;;;;;;5034201;28;20026;-71
2022/07/19 06:51:54;;;;;;;4.78;1.50;;;;;;;;;;5017916;28;20312;-69
2022/07/19 06:54:19;;;;;;;2.78;1.48;;;;;;;;;;5035262;28;20045;-70
2022/07/19 06:56:44;;;;;;;2.88;1.60;;;;;;;;;;5035248;28;20021;-71
2022/07/19 06:59:10;;;;;;;2.03;1.50;;;;;;;;;;5035300;28;20462;-71
2022/07/19 07:01:35;;;;;;;3.95;1.55;;;;;;;;;;5035245;28;20089;-70
2022/07/19 07:04:01;;;;;;;3.83;1.50;;;;;;;;;;5036568;28;20112;-71
2022/07/19 07:06:26;;;;;;;3.10;1.60;;;;;;;;;;5022390;28;20297;-71
2022/07/19 07:08:51;;;;;;;6.63;2.00;;;;;;;;;;5035783;28;20259;-71
2022/07/19 07:11:16;;;;;;;7.93;1.83;;;;;;;;;;5035162;28;20251;-72
2022/07/19 07:13:42;;;;;;;5.27;2.07;;;;;;;;;;5035221;28;20336;-72
2022/07/19 07:16:07;;;;;;;4.27;1.70;;;;;;;;;;5035678;28;20337;-69
2022/07/19 07:18:32;;;;;;;4.43;1.55;;;;;;;;;;5017100;28;20111;-71
2022/07/19 07:20:58;;;;;;;2.97;1.43;;;;;;;;;;5034981;28;20061;-71
2022/07/19 07:23:24;;;;;;;3.47;1.60;;;;;;;;;;5034720;28;20143;-71
2022/07/19 07:25:49;;;;;;;3.13;1.60;;;;;;;;;;5034890;28;20021;-70
2022/07/19 07:28:14;;;;;;;5.57;1.80;;;;;;;;;;5034740;28;20076;-71
2022/07/19 07:30:40;;;;;;;5.00;1.83;;;;;;;;;;5034510;28;20072;-71
2022/07/19 07:33:05;;;;;;;6.10;1.67;;;;;;;;;;5034482;28;20035;-71
2022/07/19 07:35:31;;;;;;;4.53;1.70;;;;;;;;;;5035079;28;20104;-71
2022/07/19 07:37:56;;;;;;;10.90;1.80;;;;;;;;;;5034576;28;20270;-71
2022/07/19 07:40:21;;;;;;;6.97;1.80;;;;;;;;;;5034533;28;20025;-71
2022/07/19 07:42:47;;;;;;;5.07;1.65;;;;;;;;;;5035083;28;20060;-72
2022/07/19 07:45:14;;;;;;;3.15;1.38;;;;;;;;;;5038555;28;20063;-71
2022/07/19 07:47:39;;;;;;;4.28;1.55;;;;;;;;;;5040882;28;20059;-71
2022/07/19 07:50:06;;;;;;;2.25;1.58;;;;;;;;;;5040201;28;20029;-71
2022/07/19 07:52:31;;;;;;;6.43;1.70;;;;;;;;;;5041531;28;20057;-72
2022/07/19 07:54:57;;;;;;;7.63;1.60;;;;;;;;;;5038296;28;20033;-71
2022/07/19 07:57:22;;;;;;;2.40;1.60;;;;;;;;;;5035647;28;20025;-71
2022/07/19 07:59:48;;;;;;;6.70;1.70;;;;;;;;;;5041468;28;20394;-72
2022/07/19 08:02:13;;;;;;;4.18;1.60;;;;;;;;;;5040962;28;20293;-72
2022/07/19 08:04:38;;;;;;;4.82;1.60;;;;;;;;;;5040996;28;20025;-71
2022/07/19 08:07:04;;;;;;;3.13;1.40;;;;;;;;;;5038105;28;20026;-71
2022/07/19 08:09:30;;;;;;;3.42;1.50;;;;;;;;;;5039186;28;20036;-72
2022/07/19 08:11:55;;;;;;;4.90;2.00;;;;;;;;;;5040620;28;20033;-71
2022/07/19 08:14:21;;;;;;;3.45;1.60;;;;;;;;;;5040527;28;20102;-72
2022/07/19 08:16:46;;;;;;;2.58;1.40;;;;;;;;;;5040181;28;20108;-72
2022/07/19 08:19:11;;;;;;;4.10;1.70;;;;;;;;;;5039796;28;20029;-72
2022/07/19 08:21:36;;;;;;;6.20;1.80;;;;;;;;;;5042763;28;20085;-72
2022/07/19 08:24:02;;;;;;;3.80;1.70;;;;;;;;;;5041237;28;20270;-73
2022/07/19 08:26:27;;;;;;;6.18;1.60;;;;;;;;;;5040249;28;20029;-72
2022/07/19 08:28:52;;;;;;;3.80;1.83;;;;;;;;;;5035595;28;20406;-71
2022/07/19 08:31:18;;;;;;;2.80;1.60;;;;;;;;;;5034102;28;20022;-71
2022/07/19 08:33:43;;;;;;;5.68;1.40;;;;;;;;;;5033381;28;20736;-70
2022/07/19 08:36:09;;;;;;;3.13;1.40;;;;;;;;;;5033547;28;20096;-72
2022/07/19 08:38:36;;;;;;;2.45;1.50;;;;;;;;;;5033441;28;20031;-72
2022/07/19 08:41:01;;;;;;;3.72;1.60;;;;;;;;;;5033278;28;20186;-71
2022/07/19 08:43:26;;;;;;;2.75;1.58;;;;;;;;;;5033619;28;20057;-70
2022/07/19 08:45:52;;;;;;;4.13;1.60;;;;;;;;;;5033602;28;20033;-71
2022/07/19 08:48:17;;;;;;;2.28;1.58;;;;;;;;;;5033604;28;20040;-71
2022/07/19 08:50:44;;;;;;;3.95;1.48;;;;;;;;;;5033009;28;20033;-71
2022/07/19 08:53:10;;;;;;;4.30;1.50;;;;;;;;;;5033215;28;20055;-70
2022/07/19 08:55:35;;;;;;;2.03;1.60;;;;;;;;;;5033032;28;20025;-71
2022/07/19 08:58:01;;;;;;;5.20;1.70;;;;;;;;;;5033248;28;20106;-71
2022/07/19 09:00:31;;;;;;;3.80;1.60;;;;;;;;;;5031556;28;20271;-71
2022/07/19 09:03:01;;;;;;;2.83;1.50;;;;;;;;;;5032844;28;20462;-70
2022/07/19 09:05:28;;;;;;;2.42;1.50;;;;;;;;;;5032682;28;20025;-70
2022/07/19 09:08:11;;;;;;;2.15;1.60;;;;;;;;;;5033443;28;20537;-71
2022/07/19 09:10:40;;;;;;;3.15;1.50;;;;;;;;;;5032036;28;20025;-71
2022/07/19 09:13:11;;;;;;;1.70;1.40;;;;;;;;;;5032705;28;20033;-71
2022/07/19 09:15:37;;;;;;;2.53;1.60;;;;;;;;;;5033076;28;20033;-70
2022/07/19 09:18:15;;;;;;;4.40;1.88;;;;;;;;;;5015346;28;20072;-71
2022/07/19 09:20:42;;;;;;;2.08;1.38;;;;;;;;;;5032649;28;20028;-71
2022/07/19 09:23:07;;;;;;;3.95;1.73;;;;;;;;;;5032639;28;20080;-71
2022/07/19 09:25:46;;;;;;;4.68;1.77;;;;;;;;;;5032620;28;20025;-70
2022/07/19 09:28:11;;;;;;;6.25;1.63;;;;;;;;;;5032459;28;20029;-72
2022/07/19 09:30:39;;;;;;;4.70;1.75;;;;;;;;;;5033690;28;20044;-78
2022/07/19 09:33:10;;;;;;;2.90;1.50;;;;;;;;;;5021013;28;20114;-79
2022/07/19 09:35:43;;;;;;;5.45;1.70;;;;;;;;;;5018162;28;20042;-78
2022/07/19 09:38:22;;;;;;;8.47;1.53;;;;;;;;;;5009731;28;20030;-78
2022/07/19 09:41:08;;;;;;;3.03;1.60;;;;;;;;;;5036200;28;20033;-79
2022/07/19 09:43:53;;;;;;;4.13;1.55;;;;;;;;;;5017916;28;20145;-77
2022/07/19 09:46:39;;;;;;;4.00;1.60;;;;;;;;;;5036122;28;20521;-81
2022/07/19 09:49:09;;;;;;;4.68;1.40;;;;;;;;;;5036564;28;20037;-77
2022/07/19 09:51:37;;;;;;;3.55;1.55;;;;;;;;;;5034260;28;20100;-77
2022/07/19 09:54:04;;;;;;;6.82;1.70;;;;;;;;;;5034596;28;20038;-78
2022/07/19 09:56:30;;;;;;;2.58;1.40;;;;;;;;;;5034640;28;20053;-78
2022/07/19 09:58:56;;;;;;;6.05;1.65;;;;;;;;;;5033285;28;20034;-78
2022/07/19 10:01:22;;;;;;;4.82;1.90;;;;;;;;;;5037551;28;20026;-78
2022/07/19 10:03:48;;;;;;;8.82;1.83;;;;;;;;;;5036740;28;20116;-77
2022/07/19 10:06:14;;;;;;;3.05;1.73;;;;;;;;;;5034185;28;20454;-78
2022/07/19 10:08:39;;;;;;;3.53;1.92;;;;;;;;;;5034399;28;20060;-80
2022/07/19 10:11:05;;;;;;;4.28;1.55;;;;;;;;;;5035625;28;20085;-78
2022/07/19 10:13:31;;;;;;;2.55;1.58;;;;;;;;;;5035000;28;20025;-78
2022/07/19 10:15:59;;;;;;;8.60;1.85;;;;;;;;;;5034929;28;20029;-79
2022/07/19 10:18:32;;;;;;;2.83;1.50;;;;;;;;;;5034722;28;20442;-79
2022/07/19 10:21:00;;;;;;;7.00;1.80;;;;;;;;;;5036117;28;20111;-77
2022/07/19 10:23:31;;;;;;;4.05;1.85;;;;;;;;;;5021011;28;20060;-78
2022/07/19 10:25:56;;;;;;;3.55;1.83;;;;;;;;;;5038807;28;20100;-77
2022/07/19 10:28:37;;;;;;;2.55;1.67;;;;;;;;;;5043336;28;20479;-78
2022/07/19 10:31:02;;;;;;;13.10;2.15;;;;;;;;;;5030002;28;20017;-78
2022/07/19 10:33:33;;;;;;;4.45;1.65;;;;;;;;;;5047656;28;20032;-79
2022/07/19 10:36:40;;;;;;;3.15;1.60;;;;;;;;;;5047584;28;20022;-79
2022/07/19 10:39:17;;;;;;;2.08;1.30;;;;;;;;;;5044332;28;20029;-78
2022/07/19 10:42:06;;;;;;;2.50;1.48;;;;;;;;;;5041828;28;20029;-81
2022/07/19 10:44:33;;;;;;;2.78;1.75;;;;;;;;;;5044046;28;20100;-79
2022/07/19 10:46:58;;;;;;;3.53;1.70;;;;;;;;;;5044318;28;20081;-80
2022/07/19 10:49:43;;;;;;;5.35;1.90;;;;;;;;;;5040444;28;20060;-77
2022/07/19 10:52:27;;;;;;;8.55;1.90;;;;;;;;;;5039105;28;20034;-77
2022/07/19 10:55:22;;;;;;;5.60;1.70;;;;;;;;;;5038596;28;20041;-78
2022/07/19 10:57:50;;;;;;;6.60;1.70;;;;;;;;;;5037338;28;20026;-78
2022/07/19 11:00:16;;;;;;;3.67;2.00;;;;;;;;;;5038579;28;20025;-79
2022/07/19 11:02:42;;;;;;;3.63;1.60;;;;;;;;;;5021332;28;20030;-77
2022/07/19 11:05:08;;;;;;;4.90;1.67;;;;;;;;;;5039460;28;20497;-77
2022/07/19 11:07:33;;;;;;;4.82;1.63;;;;;;;;;;5037882;28;20052;-78
2022/07/19 11:09:58;;;;;;;3.08;1.42;;;;;;;;;;5040601;28;20021;-78
2022/07/19 11:12:30;;;;;;;3.40;1.80;;;;;;;;;;5042127;28;20031;-80
2022/07/19 11:14:57;;;;;;;2.63;1.55;;;;;;;;;;5023135;28;20605;-78
2022/07/19 11:17:23;;;;;;;8.75;1.70;;;;;;;;;;5024101;28;20434;-79
2022/07/19 11:20:05;;;;;;;4.67;1.67;;;;;;;;;;5040840;28;20075;-78
2022/07/19 11:22:35;;;;;;;7.57;2.00;;;;;;;;;;5039502;28;20297;-77
2022/07/19 11:25:03;;;;;;;4.72;1.85;;;;;;;;;;5039517;28;20025;-78
2022/07/19 11:27:29;;;;;;;4.60;1.98;;;;;;;;;;5038944;28;20036;-79
2022/07/19 11:29:56;;;;;;;8.38;2.10;;;;;;;;;;5040014;28;20052;-78
2022/07/19 11:32:22;;;;;;;2.35;1.63;;;;;;;;;;5021089;28;20107;-78
2022/07/19 11:35:03;;;;;;;5.57;1.85;;;;;;;;;;5037210;28;20025;-78
2022/07/19 11:37:31;;;;;;;4.28;1.75;;;;;;;;;;5037441;28;20059;-78
2022/07/19 11:39:57;;;;;;;5.75;2.00;;;;;;;;;;5036838;28;20597;-77
2022/07/19 11:42:37;;;;;;;5.00;2.30;;;;;;;;;;5036912;28;20053;-77
2022/07/19 11:45:14;;;;;;;7.47;1.92;;;;;;;;;;5037562;28;20036;-78
2022/07/19 11:47:44;;;;;;;5.05;1.80;;;;;;;;;;5037654;28;20021;-77
2022/07/19 11:50:11;;;;;;;5.88;1.80;;;;;;;;;;5036831;28;20537;-79
2022/07/19 11:52:48;;;;;;;10.70;1.75;;;;;;;;;;5037897;28;20029;-80
2022/07/19 11:55:16;;;;;;;13.75;2.70;;;;;;;;;;5037245;28;20053;-77
2022/07/19 11:57:41;;;;;;;7.18;2.10;;;;;;;;;;5018788;28;20056;-78
2022/07/19 12:00:09;;;;;;;5.97;2.10;;;;;;;;;;5036641;28;20024;-78
2022/07/19 12:03:09;;;;;;;4.75;1.95;;;;;;;;;;5019887;28;20144;-79
2022/07/19 12:05:38;;;;;;;3.47;1.63;;;;;;;;;;5036738;28;20045;-78
2022/07/19 12:08:06;;;;;;;3.83;1.70;;;;;;;;;;5037645;28;20025;-79
2022/07/19 12:10:41;;;;;;;6.88;2.10;;;;;;;;;;5037620;28;20022;-78
2022/07/19 12:13:11;;;;;;;4.68;2.05;;;;;;;;;;5019513;28;20025;-77
2022/07/19 12:15:52;;;;;;;3.40;2.00;;;;;;;;;;5037645;28;20033;-77
2022/07/19 12:18:22;;;;;;;6.43;2.10;;;;;;;;;;5031107;28;20100;-78
2022/07/19 12:21:25;;;;;;;9.43;1.90;;;;;;;;;;5036433;28;20475;-78
2022/07/19 12:24:21;;;;;;;5.28;2.00;;;;;;;;;;5038114;28;20029;-78
2022/07/19 12:26:55;;;;;;;10.50;2.35;;;;;;;;;;5038219;28;20032;-78
2022/07/19 12:29:32;;;;;;;7.35;2.25;;;;;;;;;;5039003;28;20021;-79
2022/07/19 12:32:04;;;;;;;7.00;2.05;;;;;;;;;;5040379;28;20025;-78
2022/07/19 12:34:50;;;;;;;5.82;2.00;;;;;;;;;;5037621;28;20025;-79
2022/07/19 12:37:27;;;;;;;4.20;2.00;;;;;;;;;;5038081;28;20025;-79
2022/07/19 12:40:03;;;;;;;7.43;2.20;;;;;;;;;;5037884;28;20021;-77
2022/07/19 12:42:36;;;;;;;5.43;1.95;;;;;;;;;;5036765;28;20045;-78
2022/07/19 12:45:02;;;;;;;;;;;;;;;;;;5039599;28;20025;-79
2022/07/19 12:47:28;;;;;;;5.47;2.15;;;;;;;;;;5019527;28;19909;-79
2022/07/19 12:49:53;;;;;;;4.00;2.03;;;;;;;;;;5039201;28;20586;-78
2022/07/19 12:52:18;;;;;;;5.97;2.03;;;;;;;;;;5038829;28;20671;-78
2022/07/19 12:54:44;;;;;;;3.20;2.10;;;;;;;;;;5037378;28;20060;-78
2022/07/19 12:57:09;;;;;;;7.57;2.40;;;;;;;;;;5036578;28;20026;-78
2022/07/19 12:59:40;;;;;;;8.07;2.80;;;;;;;;;;5038931;28;20017;-79
2022/07/19 13:02:11;;;;;;;6.43;2.60;;;;;;;;;;5038028;28;20040;-77
2022/07/19 13:04:38;;;;;;;4.68;3.00;;;;;;;;;;5038489;28;20028;-78
2022/07/19 13:07:05;;;;;;;8.95;3.08;;;;;;;;;;5037354;28;20025;-79
2022/07/19 13:09:31;;;;;;;6.05;2.67;;;;;;;;;;5039690;28;20026;-78
2022/07/19 13:11:56;;;;;;;6.53;2.70;;;;;;;;;;5038930;28;20044;-77
2022/07/19 13:14:23;;;;;;;6.22;2.70;;;;;;;;;;5037877;28;20025;-78
2022/07/19 13:16:48;;;;;;;4.57;3.00;;;;;;;;;;5038110;28;20025;-77
2022/07/19 13:19:14;;;;;;;3.90;2.55;;;;;;;;;;5036676;28;20028;-78
2022/07/19 13:21:39;;;;;;;4.63;2.53;;;;;;;;;;5036484;28;20094;-78
2022/07/19 13:24:05;;;;;;;8.50;2.35;;;;;;;;;;5036947;28;20699;-78
2022/07/19 13:26:30;;;;;;;4.55;2.60;;;;;;;;;;5019811;28;20032;-77
2022/07/19 13:28:55;;;;;;;4.97;2.40;;;;;;;;;;5019326;28;20042;-78
2022/07/19 13:31:20;;;;;;;5.77;2.30;;;;;;;;;;5036580;28;20269;-78
2022/07/19 13:33:46;;;;;;;5.83;2.57;;;;;;;;;;5038190;28;20320;-78
2022/07/19 13:36:11;;;;;;;6.67;2.60;;;;;;;;;;5036405;28;20253;-80
2022/07/19 13:38:40;;;;;;;4.63;2.42;;;;;;;;;;5038152;28;20293;-83
2022/07/19 13:41:07;;;;;;;11.85;2.72;;;;;;;;;;5036778;28;20028;-77
2022/07/19 13:43:32;;;;;;;5.38;2.88;;;;;;;;;;5036984;28;20398;-79
2022/07/19 13:45:59;;;;;;;7.17;2.80;;;;;;;;;;5037242;28;20112;-77
2022/07/19 13:48:24;;;;;;;5.97;2.80;;;;;;;;;;5035617;28;20052;-78
2022/07/19 13:50:52;;;;;;;10.90;2.72;;;;;;;;;;5036124;28;20026;-79
2022/07/19 13:53:18;;;;;;;5.68;2.65;;;;;;;;;;5036144;28;20501;-78
2022/07/19 13:55:43;;;;;;;6.32;2.72;;;;;;;;;;5028592;28;20030;-80
2022/07/19 13:58:08;;;;;;;5.18;2.60;;;;;;;;;;5040161;28;20079;-79
2022/07/19 14:00:34;;;;;;;5.87;2.73;;;;;;;;;;5041736;28;20014;-78
2022/07/19 14:02:59;;;;;;;8.50;2.80;;;;;;;;;;5024608;28;20258;-79
2022/07/19 14:05:25;;;;;;;3.90;2.50;;;;;;;;;;5042076;28;20048;-78
2022/07/19 14:07:50;;;;;;;7.13;2.60;;;;;;;;;;5041797;28;20076;-78
2022/07/19 14:10:15;;;;;;;3.92;2.50;;;;;;;;;;5042802;28;20340;-78
2022/07/19 14:12:40;;;;;;;4.77;2.70;;;;;;;;;;5042376;28;20043;-78
2022/07/19 14:15:06;;;;;;;5.60;3.07;;;;;;;;;;5042121;28;20747;-77
2022/07/19 14:17:31;;;;;;;7.43;2.80;;;;;;;;;;5041489;28;20501;-79
2022/07/19 14:19:57;;;;;;;5.57;2.90;;;;;;;;;;5041210;28;20104;-77
2022/07/19 14:22:22;;;;;;;9.47;2.80;;;;;;;;;;5041669;28;20033;-77
2022/07/19 14:24:47;;;;;;;10.67;2.53;;;;;;;;;;5041153;28;20258;-78
2022/07/19 14:27:12;;;;;;;3.23;2.63;;;;;;;;;;5042590;28;20258;-78
2022/07/19 14:29:41;;;;;;;8.90;2.70;;;;;;;;;;5039788;28;20013;-80
2022/07/19 14:32:06;;;;;;;5.43;2.75;;;;;;;;;;5040644;28;20052;-77
2022/07/19 14:34:31;;;;;;;5.82;2.58;;;;;;;;;;5022977;28;20017;-78
2022/07/19 14:36:57;;;;;;;5.57;2.58;;;;;;;;;;5042175;28;20499;-78
2022/07/19 14:39:22;;;;;;;5.18;2.50;;;;;;;;;;5040702;28;20033;-79
2022/07/19 14:41:47;;;;;;;5.93;2.50;;;;;;;;;;5041643;28;20108;-78
2022/07/19 14:44:13;;;;;;;7.38;2.58;;;;;;;;;;5040579;28;20038;-78